Time;durP1;ratioP1;P1;durP2;ratioP2;P2;SDS_P1;SDS_P2;PMS_P1;PMS_P2;Temp;Humidity;BMP_temperature;BMP_pressure;BME280_temperature;BME280_humidity;BME280_pressure;Samples;Min_cycle;Max_cycle;Signal;HPM_P1;HPM_P2
2022/06/21 00:00:37;;;;;;;5.80;2.38;;;15.50;91.80;;;;;;5052150;28;20021;-65
2022/06/21 00:03:08;;;;;;;5.30;2.22;;;15.50;92.00;;;;;;5051059;28;20516;-65
2022/06/21 00:05:36;;;;;;;3.70;2.70;;;15.50;92.10;;;;;;5051953;28;20464;-65
2022/06/21 00:08:07;;;;;;;3.40;2.55;;;15.40;92.20;;;;;;5055337;28;20044;-65
2022/06/21 00:10:36;;;;;;;4.88;2.10;;;15.40;92.20;;;;;;5072013;28;20166;-65
2022/06/21 00:13:07;;;;;;;3.30;2.22;;;15.40;92.30;;;;;;5071166;28;20028;-65
2022/06/21 00:15:32;;;;;;;3.05;2.28;;;15.40;92.40;;;;;;5071914;28;20471;-65
2022/06/21 00:17:58;;;;;;;4.32;2.55;;;15.30;92.50;;;;;;5069833;28;20039;-65
2022/06/21 00:20:25;;;;;;;2.97;2.17;;;15.30;92.60;;;;;;5052205;28;20419;-65
2022/06/21 00:22:51;;;;;;;4.70;2.40;;;15.30;92.70;;;;;;5051685;28;20132;-65
2022/06/21 00:25:23;;;;;;;4.60;2.60;;;15.30;92.80;;;;;;5068659;28;20496;-65
2022/06/21 00:27:49;;;;;;;5.07;2.50;;;15.30;92.90;;;;;;5064041;28;20108;-65
2022/06/21 00:30:16;;;;;;;5.80;2.78;;;15.30;92.90;;;;;;5071890;28;20506;-65
2022/06/21 00:32:42;;;;;;;5.10;2.63;;;15.30;93.00;;;;;;5064589;28;20428;-66
2022/06/21 00:35:16;;;;;;;4.13;2.95;;;15.30;93.10;;;;;;5051840;28;20028;-65
2022/06/21 00:37:42;;;;;;;5.68;3.08;;;15.30;93.30;;;;;;5051864;28;20065;-64
2022/06/21 00:40:25;;;;;;;6.72;3.05;;;15.30;93.20;;;;;;5051527;28;20035;-65
2022/06/21 00:43:00;;;;;;;6.18;2.72;;;15.20;93.30;;;;;;5062635;28;20033;-65
2022/06/21 00:45:39;;;;;;;5.15;2.88;;;15.30;93.30;;;;;;5050426;28;20083;-65
2022/06/21 00:48:26;;;;;;;7.07;3.33;;;15.20;93.30;;;;;;5051618;28;20063;-65
2022/06/21 00:50:56;;;;;;;4.80;3.15;;;15.20;93.40;;;;;;5051707;28;20033;-65
2022/06/21 00:53:36;;;;;;;5.22;2.60;;;15.30;93.40;;;;;;5050771;28;20534;-65
2022/06/21 00:56:23;;;;;;;3.58;2.63;;;15.30;93.50;;;;;;5051776;28;20036;-65
2022/06/21 00:58:49;;;;;;;4.15;2.58;;;15.30;93.40;;;;;;5052118;28;20025;-65
2022/06/21 01:01:29;;;;;;;4.20;2.72;;;15.30;93.50;;;;;;5054321;28;20037;-65
2022/06/21 01:04:01;;;;;;;5.43;2.60;;;15.30;93.50;;;;;;5071563;28;20043;-65
2022/06/21 01:06:41;;;;;;;5.47;2.80;;;15.30;93.50;;;;;;5070889;28;20024;-65
2022/06/21 01:09:33;;;;;;;7.97;2.97;;;15.30;93.50;;;;;;5070919;28;20055;-65
2022/06/21 01:12:19;;;;;;;4.35;2.47;;;15.30;93.50;;;;;;5032872;28;20036;-65
2022/06/21 01:14:54;;;;;;;6.82;2.80;;;15.30;93.60;;;;;;5069825;28;20025;-65
2022/06/21 01:17:20;;;;;;;3.25;2.55;;;15.20;93.60;;;;;;5059443;28;20039;-65
2022/06/21 01:19:58;;;;;;;8.68;3.33;;;15.20;93.60;;;;;;5049898;28;20025;-65
2022/06/21 01:23:19;;;;;;;4.15;2.90;;;15.20;93.70;;;;;;5054444;28;20068;-65
2022/06/21 01:26:19;;;;;;;6.45;3.03;;;15.20;93.70;;;;;;5029241;28;20043;-65
2022/06/21 01:28:45;;;;;;;7.20;3.70;;;15.10;93.80;;;;;;5071215;28;20028;-66
2022/06/21 01:31:11;;;;;;;5.20;2.90;;;15.10;93.80;;;;;;5059811;28;20036;-66
2022/06/21 01:33:40;;;;;;;7.45;3.10;;;15.10;93.90;;;;;;5051256;28;20116;-65
2022/06/21 01:36:29;;;;;;;5.25;3.05;;;15.10;93.90;;;;;;5054494;28;20029;-65
2022/06/21 01:39:05;;;;;;;7.32;3.05;;;15.10;93.90;;;;;;5054571;28;20068;-66
2022/06/21 01:41:47;;;;;;;4.70;2.35;;;15.10;94.00;;;;;;5055113;28;20032;-66
2022/06/21 01:44:20;;;;;;;3.88;2.70;;;15.00;94.10;;;;;;5055029;28;20037;-65
2022/06/21 01:46:46;;;;;;;5.35;3.00;;;15.00;94.20;;;;;;5055039;28;20055;-66
2022/06/21 01:49:15;;;;;;;5.88;3.00;;;15.00;94.20;;;;;;5054903;28;20078;-65
2022/06/21 01:51:51;;;;;;;6.15;3.25;;;15.00;94.30;;;;;;5065393;28;20060;-65
2022/06/21 01:54:22;;;;;;;6.22;3.30;;;15.00;94.30;;;;;;5054966;28;20029;-66
2022/06/21 01:56:48;;;;;;;4.10;2.60;;;15.00;94.40;;;;;;5069049;28;20499;-65
2022/06/21 01:59:25;;;;;;;4.43;2.78;;;15.00;94.40;;;;;;5069534;28;20472;-65
2022/06/21 02:01:59;;;;;;;4.43;2.65;;;15.10;94.50;;;;;;5054268;28;20544;-66
2022/06/21 02:04:29;;;;;;;4.53;2.80;;;15.00;94.50;;;;;;5054652;28;20111;-65
2022/06/21 02:06:58;;;;;;;3.33;2.65;;;15.10;94.60;;;;;;5068709;28;20551;-65
2022/06/21 02:09:27;;;;;;;4.47;3.10;;;15.00;94.60;;;;;;5070169;28;20052;-65
2022/06/21 02:12:03;;;;;;;7.63;3.58;;;15.00;94.70;;;;;;5054288;28;20021;-65
2022/06/21 02:14:31;;;;;;;4.82;3.30;;;15.00;94.70;;;;;;5054500;28;20033;-64
2022/06/21 02:16:59;;;;;;;7.82;3.30;;;15.00;94.70;;;;;;5054348;28;20136;-64
2022/06/21 02:19:31;;;;;;;5.30;2.95;;;15.00;94.70;;;;;;5055986;28;20028;-65
2022/06/21 02:21:57;;;;;;;4.50;2.60;;;15.10;94.80;;;;;;5074107;28;20484;-65
2022/06/21 02:24:25;;;;;;;4.22;2.72;;;15.00;94.80;;;;;;5060180;28;20047;-64
2022/06/21 02:26:52;;;;;;;6.32;3.17;;;15.00;94.80;;;;;;5053971;28;20605;-64
2022/06/21 02:29:17;;;;;;;5.82;3.22;;;15.00;94.90;;;;;;5056705;28;20534;-64
2022/06/21 02:31:44;;;;;;;4.20;2.92;;;15.10;94.90;;;;;;5058995;28;20028;-65
2022/06/21 02:34:25;;;;;;;4.55;3.17;;;15.00;94.90;;;;;;5061075;28;20020;-65
2022/06/21 02:36:57;;;;;;;7.47;3.20;;;15.00;94.80;;;;;;5074016;28;20509;-65
2022/06/21 02:39:26;;;;;;;5.63;3.00;;;15.00;94.90;;;;;;5068391;28;20036;-64
2022/06/21 02:41:59;;;;;;;6.90;3.35;;;14.90;94.90;;;;;;5053777;28;20047;-65
2022/06/21 02:44:48;;;;;;;8.68;4.22;;;14.90;94.90;;;;;;5057657;28;20415;-65
2022/06/21 02:47:24;;;;;;;6.75;3.58;;;14.80;95.00;;;;;;5070413;28;20033;-65
2022/06/21 02:50:02;;;;;;;5.78;3.15;;;14.80;95.10;;;;;;5073694;28;20510;-65
2022/06/21 02:52:37;;;;;;;6.25;2.90;;;14.80;95.10;;;;;;5074151;28;20058;-65
2022/06/21 02:55:29;;;;;;;6.50;3.50;;;14.80;95.10;;;;;;5075208;28;20644;-65
2022/06/21 02:58:01;;;;;;;4.15;3.13;;;14.90;95.10;;;;;;5067426;28;20024;-65
2022/06/21 03:00:27;;;;;;;7.70;3.42;;;14.90;95.20;;;;;;5060466;28;20439;-65
2022/06/21 03:02:53;;;;;;;6.55;3.65;;;14.80;95.20;;;;;;5053116;28;20123;-65
2022/06/21 03:05:25;;;;;;;4.35;2.88;;;14.80;95.50;;;;;;5053238;28;20052;-65
2022/06/21 03:07:54;;;;;;;7.82;3.22;;;14.70;95.50;;;;;;5053276;28;20052;-65
2022/06/21 03:10:31;;;;;;;4.15;3.05;;;14.70;95.50;;;;;;5053131;28;20479;-65
2022/06/21 03:13:19;;;;;;;6.05;3.13;;;14.70;95.50;;;;;;5059173;28;20094;-65
2022/06/21 03:15:49;;;;;;;5.18;3.40;;;14.70;95.50;;;;;;5062960;28;20431;-65
2022/06/21 03:18:21;;;;;;;7.32;3.28;;;14.70;95.70;;;;;;5052582;28;20082;-65
2022/06/21 03:20:48;;;;;;;5.85;3.08;;;14.70;95.70;;;;;;5053262;28;20423;-65
2022/06/21 03:23:14;;;;;;;5.70;3.67;;;14.70;95.70;;;;;;5052734;28;20041;-64
2022/06/21 03:25:52;;;;;;;6.70;2.85;;;14.70;95.70;;;;;;5052981;28;20451;-64
2022/06/21 03:28:23;;;;;;;3.95;2.90;;;14.80;95.70;;;;;;5053091;28;20040;-64
2022/06/21 03:31:04;;;;;;;7.53;3.83;;;14.80;95.70;;;;;;5058276;28;20383;-64
2022/06/21 03:33:32;;;;;;;7.93;3.10;;;14.80;95.70;;;;;;5052688;28;20079;-64
2022/06/21 03:35:59;;;;;;;9.45;3.35;;;14.80;95.60;;;;;;5052818;28;20461;-64
2022/06/21 03:38:26;;;;;;;5.18;2.97;;;14.80;95.70;;;;;;5052992;28;20432;-64
2022/06/21 03:43:44;;;;;;;6.43;3.20;;;14.80;95.80;;;;;;5053164;28;20051;-65
2022/06/21 03:46:18;;;;;;;7.85;3.30;;;14.80;95.80;;;;;;5035224;28;20486;-65
2022/06/21 03:48:52;;;;;;;7.50;3.60;;;14.90;95.90;;;;;;5054127;28;20051;-65
2022/06/21 03:51:29;;;;;;;6.45;3.13;;;14.90;95.90;;;;;;5063496;28;20035;-65
2022/06/21 03:54:10;;;;;;;5.15;3.03;;;14.90;96.00;;;;;;5072722;28;20486;-65
2022/06/21 03:56:53;;;;;;;5.25;3.53;;;15.00;96.10;;;;;;5060082;28;20035;-65
2022/06/21 03:59:32;;;;;;;6.60;3.15;;;15.00;96.00;;;;;;5052424;28;20518;-64
2022/06/21 04:02:13;;;;;;;7.55;3.30;;;15.10;96.00;;;;;;5052389;28;20049;-65
2022/06/21 04:04:53;;;;;;;5.50;3.80;;;15.10;96.00;;;;;;5054556;28;20036;-65
2022/06/21 04:07:34;;;;;;;6.30;3.22;;;15.10;96.10;;;;;;5054420;28;20029;-65
2022/06/21 04:10:09;;;;;;;6.63;3.40;;;15.20;96.00;;;;;;5052293;28;20029;-65
2022/06/21 04:12:49;;;;;;;5.60;3.28;;;15.20;95.90;;;;;;5070869;28;20028;-64
2022/06/21 04:15:37;;;;;;;5.63;3.28;;;15.20;95.90;;;;;;5071910;28;20163;-64
2022/06/21 04:18:15;;;;;;;6.68;3.20;;;15.20;95.80;;;;;;5052317;28;20040;-64
2022/06/21 04:21:08;;;;;;;6.15;2.95;;;15.30;95.80;;;;;;5057313;28;20094;-65
2022/06/21 04:24:10;;;;;;;5.30;2.95;;;15.30;95.80;;;;;;5070755;28;20040;-65
2022/06/21 04:27:03;;;;;;;11.35;4.07;;;15.30;95.80;;;;;;5054982;28;20036;-65
2022/06/21 04:30:03;;;;;;;7.30;3.28;;;15.40;95.80;;;;;;5051647;28;20056;-65
2022/06/21 04:32:43;;;;;;;4.68;2.88;;;15.50;95.80;;;;;;5053054;28;20025;-65
2022/06/21 04:35:16;;;;;;;9.32;3.72;;;15.50;95.80;;;;;;5067167;28;20036;-65
2022/06/21 04:38:04;;;;;;;7.18;3.20;;;15.60;95.70;;;;;;5064017;28;20068;-65
2022/06/21 04:40:47;;;;;;;7.13;3.05;;;15.60;95.70;;;;;;5055221;28;20108;-65
2022/06/21 04:43:23;;;;;;;7.15;3.28;;;15.70;95.80;;;;;;5071220;28;20032;-65
2022/06/21 04:45:55;;;;;;;6.47;3.40;;;15.70;95.60;;;;;;5062840;28;20032;-68
2022/06/21 04:48:47;;;;;;;6.38;3.45;;;15.70;95.60;;;;;;5067375;28;20025;-67
2022/06/21 04:51:32;;;;;;;4.43;3.50;;;15.80;95.60;;;;;;5051454;28;20588;-66
2022/06/21 04:54:02;;;;;;;6.10;3.80;;;15.80;95.60;;;;;;5050819;28;20086;-65
2022/06/21 04:56:51;;;;;;;10.20;3.35;;;15.80;95.50;;;;;;5051389;28;20378;-65
2022/06/21 04:59:34;;;;;;;10.07;3.95;;;15.80;95.60;;;;;;5051757;28;20068;-65
2022/06/21 05:02:01;;;;;;;5.95;3.75;;;15.80;95.40;;;;;;5053585;28;20067;-66
2022/06/21 05:04:33;;;;;;;7.38;3.85;;;15.90;95.50;;;;;;5061551;28;20029;-65
2022/06/21 05:07:02;;;;;;;5.97;3.65;;;15.90;95.50;;;;;;5065204;28;20033;-65
2022/06/21 05:09:30;;;;;;;8.43;4.38;;;16.00;95.50;;;;;;5059226;28;20056;-65
2022/06/21 05:12:07;;;;;;;7.00;3.33;;;16.00;95.40;;;;;;5055371;28;20108;-65
2022/06/21 05:14:38;;;;;;;5.95;3.33;;;16.00;95.70;;;;;;5070997;28;20036;-65
2022/06/21 05:17:06;;;;;;;5.30;3.58;;;16.10;95.40;;;;;;5056552;28;20504;-65
2022/06/21 05:19:36;;;;;;;6.82;3.47;;;16.10;95.20;;;;;;5055424;28;20040;-64
2022/06/21 05:22:15;;;;;;;6.50;3.90;;;16.20;95.20;;;;;;5074654;28;20033;-64
2022/06/21 05:24:41;;;;;;;8.43;3.33;;;16.20;95.10;;;;;;5075252;28;20036;-64
2022/06/21 05:27:16;;;;;;;7.50;3.90;;;16.20;95.00;;;;;;5074984;28;20024;-64
2022/06/21 05:29:51;;;;;;;6.72;4.60;;;16.30;94.90;;;;;;5070427;28;20029;-64
2022/06/21 05:32:20;;;;;;;4.93;3.55;;;16.30;94.80;;;;;;5090328;28;20028;-65
2022/06/21 05:34:51;;;;;;;6.30;3.50;;;16.30;94.70;;;;;;5073625;28;20047;-64
2022/06/21 05:37:34;;;;;;;7.72;3.63;;;16.30;94.70;;;;;;5057762;28;20029;-65
2022/06/21 05:40:07;;;;;;;5.13;3.05;;;16.40;94.70;;;;;;5053995;28;20032;-65
2022/06/21 05:42:33;;;;;;;4.90;3.35;;;16.40;94.60;;;;;;5057022;28;20483;-64
2022/06/21 05:45:11;;;;;;;7.35;3.10;;;16.50;94.60;;;;;;5062336;28;20059;-65
2022/06/21 05:47:43;;;;;;;6.90;3.20;;;16.50;94.50;;;;;;5055360;28;20100;-64
2022/06/21 05:50:18;;;;;;;7.40;3.35;;;16.60;94.40;;;;;;5073877;28;20044;-65
2022/06/21 05:52:48;;;;;;;4.78;2.92;;;16.60;94.40;;;;;;5059164;28;20057;-65
2022/06/21 05:55:20;;;;;;;5.70;2.85;;;16.60;94.10;;;;;;5064107;28;20036;-64
2022/06/21 05:57:51;;;;;;;8.45;3.10;;;16.60;94.10;;;;;;5060044;28;20032;-65
2022/06/21 06:00:33;;;;;;;5.50;2.88;;;16.60;94.00;;;;;;5071460;28;20033;-65
2022/06/21 06:03:25;;;;;;;7.22;3.03;;;16.60;93.90;;;;;;5074025;28;20119;-65
2022/06/21 06:05:54;;;;;;;4.68;3.10;;;16.60;93.90;;;;;;5056022;28;20028;-65
2022/06/21 06:08:25;;;;;;;8.77;4.18;;;16.50;93.80;;;;;;5052374;28;20045;-65
2022/06/21 06:10:53;;;;;;;5.53;2.85;;;16.60;93.90;;;;;;5054391;28;20046;-65
2022/06/21 06:13:27;;;;;;;6.82;3.20;;;16.70;94.00;;;;;;5060624;28;20020;-65
2022/06/21 06:15:57;;;;;;;8.93;3.50;;;16.70;93.80;;;;;;5072284;28;20040;-64
2022/06/21 06:18:43;;;;;;;9.07;3.33;;;16.70;93.80;;;;;;5054265;28;20044;-65
2022/06/21 06:21:17;;;;;;;8.25;3.85;;;16.70;93.60;;;;;;5056102;28;20037;-65
2022/06/21 06:24:01;;;;;;;9.57;3.78;;;16.70;94.00;;;;;;5053095;28;20064;-65
2022/06/21 06:26:36;;;;;;;7.70;3.50;;;16.80;94.00;;;;;;5066397;28;20123;-65
2022/06/21 06:29:28;;;;;;;5.47;3.03;;;16.80;93.80;;;;;;5073635;28;20086;-65
2022/06/21 06:32:01;;;;;;;7.25;2.67;;;16.80;93.70;;;;;;5087631;28;20032;-65
2022/06/21 06:34:31;;;;;;;5.85;2.75;;;16.90;93.70;;;;;;5077427;28;20040;-65
2022/06/21 06:37:02;;;;;;;6.28;3.35;;;16.90;93.60;;;;;;5072650;28;20093;-65
2022/06/21 06:39:31;;;;;;;6.40;2.97;;;17.00;93.60;;;;;;5053903;28;20025;-66
2022/06/21 06:42:16;;;;;;;4.32;2.92;;;17.00;93.50;;;;;;5070819;28;20108;-65
2022/06/21 06:44:42;;;;;;;;;;;17.00;93.40;;;;;;5073982;28;20515;-66
2022/06/21 06:47:16;;;;;;;5.72;2.40;;;17.00;93.40;;;;;;5072518;28;19909;-65
2022/06/21 06:49:55;;;;;;;6.55;2.72;;;17.00;93.40;;;;;;5067028;28;20068;-66
2022/06/21 06:52:31;;;;;;;9.52;3.40;;;17.00;93.40;;;;;;5062997;28;20036;-64
2022/06/21 06:55:33;;;;;;;8.45;3.15;;;17.00;93.10;;;;;;5054562;28;20025;-65
2022/06/21 06:58:17;;;;;;;11.68;3.50;;;17.00;92.90;;;;;;5030754;28;20041;-65
2022/06/21 07:00:48;;;;;;;8.30;2.80;;;16.90;92.70;;;;;;5056038;28;20390;-65
2022/06/21 07:03:24;;;;;;;8.05;2.75;;;17.00;92.80;;;;;;5052874;28;20090;-65
2022/06/21 07:05:56;;;;;;;6.95;2.83;;;17.00;92.80;;;;;;5063713;28;20025;-65
2022/06/21 07:09:02;;;;;;;5.82;2.53;;;17.10;92.90;;;;;;5072481;28;20052;-65
2022/06/21 07:12:00;;;;;;;10.38;3.22;;;17.10;92.60;;;;;;5070623;28;20385;-65
2022/06/21 07:14:28;;;;;;;4.68;2.47;;;17.20;92.40;;;;;;5072809;28;20028;-65
2022/06/21 07:17:13;;;;;;;4.68;2.78;;;17.20;92.30;;;;;;5064100;28;20028;-65
2022/06/21 07:19:38;;;;;;;7.18;2.42;;;17.20;92.20;;;;;;5055995;28;20059;-66
2022/06/21 07:22:16;;;;;;;5.55;2.25;;;17.30;92.30;;;;;;5052495;28;20395;-66
2022/06/21 07:24:52;;;;;;;5.93;2.38;;;17.30;92.10;;;;;;5062038;28;20040;-66
2022/06/21 07:27:19;;;;;;;5.53;2.35;;;17.40;91.90;;;;;;5072226;28;20551;-66
2022/06/21 07:30:01;;;;;;;6.85;2.50;;;17.40;91.80;;;;;;5062747;28;20033;-65
2022/06/21 07:33:02;;;;;;;4.18;2.45;;;17.50;91.70;;;;;;5090666;28;20028;-65
2022/06/21 07:35:44;;;;;;;5.88;2.58;;;17.60;91.40;;;;;;5057671;28;20083;-65
2022/06/21 07:38:12;;;;;;;7.88;2.67;;;17.60;91.40;;;;;;5052461;28;20028;-64
2022/06/21 07:40:53;;;;;;;4.78;2.15;;;17.60;91.10;;;;;;5065519;28;20044;-65
2022/06/21 07:43:32;;;;;;;7.90;2.72;;;17.70;91.00;;;;;;5070764;28;20037;-66
2022/06/21 07:46:01;;;;;;;3.67;2.08;;;17.80;90.80;;;;;;5064111;28;20032;-65
2022/06/21 07:48:39;;;;;;;5.60;2.50;;;17.80;90.80;;;;;;5052145;28;20112;-65
2022/06/21 07:51:15;;;;;;;3.72;2.28;;;17.90;90.70;;;;;;5072543;28;20020;-66
2022/06/21 07:53:49;;;;;;;6.47;2.20;;;17.90;90.90;;;;;;5070106;28;20353;-66
2022/06/21 07:56:23;;;;;;;5.38;2.70;;;18.00;90.60;;;;;;5071861;28;20089;-66
2022/06/21 07:58:54;;;;;;;7.05;1.95;;;18.10;90.30;;;;;;5070915;28;20033;-66
2022/06/21 08:07:09;;;;;;;4.50;2.10;;;18.40;89.60;;;;;;5051849;28;20094;-66
2022/06/21 08:09:45;;;;;;;6.70;2.58;;;18.50;89.20;;;;;;5067373;28;20043;-65
2022/06/21 08:12:14;;;;;;;8.48;3.25;;;18.60;88.80;;;;;;5057976;28;20044;-65
2022/06/21 08:14:41;;;;;;;5.32;2.10;;;18.60;88.20;;;;;;5067341;28;20043;-65
2022/06/21 08:17:42;;;;;;;4.90;1.63;;;18.70;87.70;;;;;;5069912;28;20051;-65
2022/06/21 08:20:17;;;;;;;6.93;2.42;;;18.80;87.70;;;;;;5058831;28;20029;-65
2022/06/21 08:22:47;;;;;;;7.03;2.22;;;18.90;87.00;;;;;;5051258;28;20139;-65
2022/06/21 08:25:22;;;;;;;5.03;1.80;;;19.00;85.60;;;;;;5056144;28;20025;-66
2022/06/21 08:28:07;;;;;;;3.85;2.00;;;19.10;84.60;;;;;;5052409;28;20086;-66
2022/06/21 08:30:37;;;;;;;4.13;1.85;;;19.10;80.90;;;;;;5065707;28;20372;-65
2022/06/21 08:33:06;;;;;;;2.55;1.33;;;19.20;80.70;;;;;;5071345;28;20500;-65
2022/06/21 08:35:49;;;;;;;3.80;1.73;;;19.20;80.50;;;;;;5051387;28;20025;-66
2022/06/21 08:38:32;;;;;;;3.42;1.52;;;19.30;79.90;;;;;;5050871;28;20081;-65
2022/06/21 08:44:28;;;;;;;3.10;1.70;;;19.60;80.30;;;;;;5060248;28;20399;-66
2022/06/21 08:47:31;;;;;;;3.97;1.50;;;19.60;78.20;;;;;;5063284;28;20369;-65
2022/06/21 08:50:21;;;;;;;3.60;1.80;;;19.70;78.40;;;;;;5071334;28;20090;-65
2022/06/21 08:53:18;;;;;;;3.20;1.80;;;19.80;78.10;;;;;;5068885;28;20380;-66
2022/06/21 08:56:04;;;;;;;3.60;1.63;;;19.80;77.10;;;;;;5071381;28;20025;-64
2022/06/21 08:58:30;;;;;;;3.30;1.55;;;19.90;75.60;;;;;;5071102;28;20876;-65
2022/06/21 09:01:03;;;;;;;4.40;1.65;;;19.90;76.00;;;;;;5070258;28;20071;-64
2022/06/21 09:03:53;;;;;;;2.38;1.50;;;20.00;75.90;;;;;;5071236;28;20128;-65
2022/06/21 09:06:41;;;;;;;3.22;1.40;;;20.10;76.40;;;;;;5069950;28;20537;-65
2022/06/21 09:09:29;;;;;;;4.05;1.80;;;20.20;76.10;;;;;;5051676;28;20399;-65
2022/06/21 09:12:06;;;;;;;4.45;1.52;;;20.20;75.90;;;;;;5051097;28;20022;-65
2022/06/21 09:14:56;;;;;;;2.53;1.48;;;20.30;75.60;;;;;;5071220;28;20690;-65
2022/06/21 09:17:39;;;;;;;3.92;2.25;;;20.40;75.40;;;;;;5069276;28;20058;-65
2022/06/21 09:20:24;;;;;;;4.70;2.00;;;20.50;74.90;;;;;;5071209;28;20526;-65
2022/06/21 09:23:07;;;;;;;3.27;1.70;;;20.50;73.80;;;;;;5067301;28;20067;-65
2022/06/21 09:25:49;;;;;;;4.53;2.38;;;20.60;73.80;;;;;;5071124;28;20741;-65
2022/06/21 09:28:33;;;;;;;3.38;1.63;;;20.70;74.00;;;;;;5069032;28;20387;-65
2022/06/21 09:31:20;;;;;;;2.00;1.20;;;20.80;73.80;;;;;;5078389;28;20507;-65
2022/06/21 09:34:07;;;;;;;4.35;1.63;;;20.80;73.10;;;;;;5075610;28;20337;-65
2022/06/21 09:36:36;;;;;;;3.00;1.55;;;20.90;73.70;;;;;;5071193;28;20507;-65
2022/06/21 09:39:18;;;;;;;3.78;1.58;;;21.00;73.40;;;;;;5067141;28;20048;-65
2022/06/21 09:42:32;;;;;;;4.93;1.65;;;21.10;72.90;;;;;;5069544;28;20558;-65
2022/06/21 09:45:25;;;;;;;3.67;1.30;;;21.20;72.20;;;;;;5063979;28;20079;-65
2022/06/21 09:48:09;;;;;;;2.67;1.85;;;21.30;72.20;;;;;;5050156;28;20614;-64
2022/06/21 09:50:47;;;;;;;4.95;1.60;;;21.40;72.00;;;;;;5051351;28;20048;-64
2022/06/21 09:53:12;;;;;;;4.38;1.90;;;21.50;71.90;;;;;;5053536;28;20024;-64
2022/06/21 09:55:54;;;;;;;2.60;1.52;;;21.50;71.00;;;;;;5055065;28;20036;-64
2022/06/21 09:58:41;;;;;;;3.65;1.50;;;21.60;70.90;;;;;;5074373;28;20029;-65
2022/06/21 10:01:44;;;;;;;8.00;1.40;;;21.70;70.60;;;;;;5072536;28;20029;-65
2022/06/21 10:04:29;;;;;;;5.35;1.55;;;21.70;70.90;;;;;;5035679;28;20067;-65
2022/06/21 10:06:58;;;;;;;6.03;1.80;;;21.90;71.00;;;;;;5062701;28;20041;-65
2022/06/21 10:09:45;;;;;;;6.18;2.00;;;21.90;69.70;;;;;;5069127;28;20041;-65
2022/06/21 10:12:36;;;;;;;3.35;1.52;;;22.00;69.10;;;;;;5067596;28;20115;-64
2022/06/21 10:15:35;;;;;;;4.07;1.70;;;22.10;68.40;;;;;;5074323;28;20487;-64
2022/06/21 10:18:35;;;;;;;2.10;1.30;;;22.10;68.50;;;;;;5082831;28;20144;-64
2022/06/21 10:21:03;;;;;;;2.95;1.50;;;22.10;68.10;;;;;;5057377;28;20031;-64
2022/06/21 10:23:49;;;;;;;4.20;1.48;;;22.20;68.50;;;;;;5088236;28;20036;-64
2022/06/21 10:26:23;;;;;;;4.93;1.50;;;22.30;67.40;;;;;;5088578;28;20025;-65
2022/06/21 10:28:49;;;;;;;3.38;1.92;;;22.40;68.60;;;;;;5073749;28;20302;-65
2022/06/21 10:32:07;;;;;;;3.63;1.60;;;22.50;66.90;;;;;;5069302;28;20082;-64
2022/06/21 10:34:38;;;;;;;3.80;2.15;;;22.60;67.60;;;;;;5010924;28;20026;-64
2022/06/21 10:37:45;;;;;;;6.50;1.75;;;22.60;65.00;;;;;;5026695;28;20033;-64
2022/06/21 10:40:32;;;;;;;4.38;1.58;;;22.60;61.90;;;;;;5016718;28;20205;-64
2022/06/21 10:43:10;;;;;;;4.10;1.80;;;22.60;63.20;;;;;;5053211;28;20060;-64
2022/06/21 10:45:49;;;;;;;2.95;1.65;;;22.60;64.20;;;;;;5053212;28;20102;-65
2022/06/21 10:48:42;;;;;;;3.47;1.60;;;22.70;63.70;;;;;;5053083;28;20090;-65
2022/06/21 10:51:29;;;;;;;3.58;1.98;;;22.80;64.00;;;;;;5056816;28;20550;-64
2022/06/21 10:54:20;;;;;;;5.32;1.75;;;22.80;63.60;;;;;;5058514;28;20036;-64
2022/06/21 10:57:14;;;;;;;3.00;1.48;;;22.90;63.70;;;;;;5067903;28;20032;-65
2022/06/21 11:02:33;;;;;;;3.88;1.73;;;23.10;62.90;;;;;;5056120;28;20110;-65
2022/06/21 11:05:41;;;;;;;4.78;1.60;;;23.10;61.70;;;;;;5073378;28;20028;-65
2022/06/21 11:08:29;;;;;;;3.28;1.38;;;23.00;61.70;;;;;;5028161;28;20662;-65
2022/06/21 11:11:18;;;;;;;4.22;1.52;;;23.10;61.60;;;;;;5006669;28;20207;-64
2022/06/21 11:13:52;;;;;;;4.25;1.75;;;23.10;62.00;;;;;;5060125;28;20441;-65
2022/06/21 11:16:31;;;;;;;3.53;1.60;;;23.20;61.40;;;;;;5072828;28;20040;-65
2022/06/21 11:19:14;;;;;;;6.10;1.80;;;23.20;60.30;;;;;;5061029;28;20409;-66
2022/06/21 11:22:19;;;;;;;4.00;1.55;;;23.30;59.90;;;;;;5054430;28;20033;-64
2022/06/21 11:25:22;;;;;;;3.38;1.40;;;23.30;60.20;;;;;;5053618;28;20112;-65
2022/06/21 11:27:53;;;;;;;3.90;1.38;;;23.40;59.70;;;;;;5082254;28;20035;-65
2022/06/21 11:30:27;;;;;;;3.78;1.73;;;23.40;60.00;;;;;;5092921;28;20376;-66
2022/06/21 11:33:01;;;;;;;;;;;23.50;58.30;;;;;;5081312;28;20028;-66
2022/06/21 11:36:10;;;;;;;3.88;1.35;;;23.50;59.50;;;;;;5065177;28;20427;-66
2022/06/21 11:39:11;;;;;;;3.85;1.40;;;23.50;56.90;;;;;;5052608;28;20037;-66
2022/06/21 11:42:06;;;;;;;2.83;1.20;;;23.60;57.60;;;;;;5065295;28;20047;-65
2022/06/21 11:44:50;;;;;;;;;;;23.60;57.20;;;;;;5071949;28;20107;-64
2022/06/21 11:47:29;;;;;;;3.92;1.52;;;23.60;58.30;;;;;;5071040;28;20048;-65
2022/06/21 11:50:03;;;;;;;2.85;1.52;;;23.70;56.60;;;;;;5066980;28;20031;-63
2022/06/21 11:52:49;;;;;;;2.10;1.20;;;23.70;55.90;;;;;;5052270;28;20025;-63
2022/06/21 11:55:32;;;;;;;2.67;1.35;;;23.70;55.30;;;;;;5068360;28;20036;-64
2022/06/21 11:58:39;;;;;;;4.80;1.45;;;23.80;55.90;;;;;;5060827;28;20048;-64
2022/06/21 12:01:13;;;;;;;4.38;1.52;;;23.80;55.90;;;;;;5067237;28;20047;-63
2022/06/21 12:04:16;;;;;;;2.92;1.60;;;23.90;55.70;;;;;;5069609;28;20063;-63
2022/06/21 12:07:11;;;;;;;3.22;1.48;;;23.90;55.80;;;;;;5052423;28;20034;-63
2022/06/21 12:09:52;;;;;;;2.20;1.30;;;24.00;55.60;;;;;;5059259;28;20495;-63
2022/06/21 12:12:42;;;;;;;2.22;1.23;;;24.00;55.10;;;;;;5065667;28;20104;-63
2022/06/21 12:15:45;;;;;;;2.47;1.42;;;24.10;55.40;;;;;;5052270;28;20155;-64
2022/06/21 12:18:17;;;;;;;2.42;1.55;;;24.20;55.30;;;;;;5062052;28;20029;-64
2022/06/21 12:21:04;;;;;;;4.30;1.40;;;24.20;54.00;;;;;;5071711;28;20025;-64
2022/06/21 12:23:41;;;;;;;4.90;1.23;;;24.30;53.70;;;;;;5070278;28;20298;-63
2022/06/21 12:26:11;;;;;;;2.42;1.40;;;24.30;53.40;;;;;;5072044;28;20052;-64
2022/06/21 12:28:40;;;;;;;2.30;1.40;;;24.40;52.90;;;;;;5065232;28;20060;-63
2022/06/21 12:31:33;;;;;;;2.20;1.20;;;24.50;53.90;;;;;;5052770;28;20100;-64
2022/06/21 12:34:13;;;;;;;3.25;1.15;;;24.60;54.00;;;;;;5051855;28;20040;-63
2022/06/21 12:36:41;;;;;;;2.95;1.38;;;24.70;53.80;;;;;;5051657;28;20060;-63
2022/06/21 12:39:18;;;;;;;3.72;1.50;;;24.80;53.50;;;;;;5068441;28;20081;-63
2022/06/21 12:41:59;;;;;;;4.75;1.80;;;24.90;53.80;;;;;;5071484;28;20330;-64
2022/06/21 12:45:01;;;;;;;3.83;1.40;;;24.90;53.30;;;;;;5059795;28;20115;-63
2022/06/21 12:47:33;;;;;;;3.47;1.48;;;24.90;52.80;;;;;;5052235;28;20017;-64
2022/06/21 12:50:23;;;;;;;3.38;1.58;;;25.00;52.50;;;;;;5064133;28;20044;-64
2022/06/21 12:53:20;;;;;;;2.65;1.40;;;25.10;52.80;;;;;;5056035;28;20032;-64
2022/06/21 12:56:04;;;;;;;2.58;1.27;;;25.10;51.10;;;;;;5070691;28;20078;-64
2022/06/21 12:58:57;;;;;;;4.80;1.58;;;25.10;50.80;;;;;;5050966;28;20040;-64
2022/06/21 13:01:30;;;;;;;3.35;1.67;;;25.10;51.70;;;;;;5065281;28;20085;-64
2022/06/21 13:04:18;;;;;;;3.15;1.20;;;25.20;51.70;;;;;;5070272;28;20033;-64
2022/06/21 13:07:20;;;;;;;3.65;1.73;;;25.30;49.80;;;;;;5068626;28;20043;-63
2022/06/21 13:09:56;;;;;;;2.15;1.25;;;25.30;50.90;;;;;;5061319;28;20080;-64
2022/06/21 13:12:32;;;;;;;2.33;1.42;;;25.40;51.40;;;;;;5057749;28;20035;-64
2022/06/21 13:15:16;;;;;;;4.15;1.30;;;25.50;50.80;;;;;;5062945;28;20036;-64
2022/06/21 13:17:42;;;;;;;;;;;25.70;50.80;;;;;;5062853;28;20036;-64
2022/06/21 13:20:44;;;;;;;3.38;1.42;;;25.80;52.20;;;;;;5070076;28;20140;-63
2022/06/21 13:23:25;;;;;;;4.35;1.70;;;25.80;51.10;;;;;;5068314;28;20040;-64
2022/06/21 13:26:19;;;;;;;4.53;1.48;;;26.00;51.80;;;;;;5058066;28;20111;-63
2022/06/21 13:28:51;;;;;;;4.63;1.50;;;26.00;50.90;;;;;;5057508;28;20041;-64
2022/06/21 13:31:16;;;;;;;4.53;1.70;;;26.00;50.20;;;;;;5057474;28;20024;-64
2022/06/21 13:33:59;;;;;;;3.90;1.50;;;26.00;49.50;;;;;;5072437;28;20033;-64
2022/06/21 13:36:35;;;;;;;1.90;1.10;;;26.00;48.80;;;;;;5063943;28;20028;-64
2022/06/21 13:39:09;;;;;;;4.68;1.55;;;26.10;48.60;;;;;;5058097;28;20024;-64
2022/06/21 13:45:12;;;;;;;1.92;1.35;;;26.30;48.50;;;;;;5068576;28;20091;-64
2022/06/21 13:47:45;;;;;;;2.35;1.35;;;26.30;48.50;;;;;;5065768;28;20025;-64
2022/06/21 13:50:37;;;;;;;2.15;1.13;;;26.30;48.30;;;;;;5066244;28;20128;-63
2022/06/21 13:53:17;;;;;;;3.22;1.35;;;26.20;48.20;;;;;;5068313;28;20039;-63
2022/06/21 13:55:49;;;;;;;4.13;1.42;;;26.20;49.00;;;;;;5070470;28;20062;-64
2022/06/21 13:58:34;;;;;;;4.78;1.33;;;26.40;48.50;;;;;;5056450;28;20021;-65
2022/06/21 14:01:22;;;;;;;2.45;1.10;;;26.40;47.70;;;;;;5071493;28;20105;-63
2022/06/21 14:04:26;;;;;;;3.47;1.50;;;26.50;47.50;;;;;;5055496;28;20063;-64
2022/06/21 14:07:18;;;;;;;3.10;1.30;;;26.60;47.40;;;;;;5068975;28;20108;-64